Disclaimer

Please do not use the information listed here in-flight or in-navigation, as they are not provided to us by the airports but are provided by volunteers, so they might be outdated.

Search


Regions


Airport information page

Radio informations:
Tower (TWR) - 118.3 MHz
A/G VOICE RDO - 8803 MHz

Airport informations:
Latitude: 09° 20' 09.21" N
Longitude: 013° 22' 12.37" E
Elevation: 794 feet - 242 meters
Operating hours: Remarks
Operating agency: Military-civil joint use airport
Timezone: UTC+1
Fuel: Jet B, Wide cut turbine fuel, Without icing inhibitor.

Runway information:
09/27 - 11032 x 148 feet< - >3363 x 45 meters

Recent METARs:
FKKR 130300Z 09006KT CAVOK 17/08 Q1014 NOSIG
FKKR 130300Z 09006KT CAVOK 17/08 Q1014 NOSIG
FKKR 130400Z 09006KT CAVOK 18/08 Q1015 NOSIG

Airport on the map: